createdAt,value
2022-12-23T00:02:09.022Z,2.57
2022-12-23T00:04:56.407Z,2.47
2022-12-23T00:07:45.081Z,2.03
2022-12-23T00:10:33.010Z,2.50
2022-12-23T00:13:38.064Z,2.90
2022-12-23T00:16:25.495Z,2.57
2022-12-23T00:19:14.451Z,2.70
2022-12-23T00:22:01.898Z,2.72
2022-12-23T00:24:50.087Z,2.83
2022-12-23T00:27:37.909Z,2.95
2022-12-23T00:30:25.639Z,3.30
2022-12-23T00:33:13.150Z,3.33
2022-12-23T00:36:02.753Z,3.65
2022-12-23T00:39:08.291Z,3.53
2022-12-23T00:42:13.102Z,3.20
2022-12-23T00:45:16.092Z,3.87
2022-12-23T00:48:20.821Z,3.28
2022-12-23T00:51:09.783Z,3.70
2022-12-23T00:53:57.325Z,4.38
2022-12-23T00:56:44.983Z,4.53
2022-12-23T00:59:32.546Z,4.33
2022-12-23T01:02:37.606Z,4.95
2022-12-23T01:05:40.692Z,5.50
2022-12-23T01:08:30.472Z,6.03
2022-12-23T01:11:18.098Z,6.38
2022-12-23T01:14:05.764Z,6.47
2022-12-23T01:16:53.427Z,6.68
2022-12-23T01:19:41.377Z,6.70
2022-12-23T01:22:28.982Z,6.50
2022-12-23T01:25:18.251Z,6.68
2022-12-23T01:28:05.951Z,6.60
2022-12-23T01:30:53.738Z,5.80
2022-12-23T01:33:41.268Z,6.57
2022-12-23T01:36:29.072Z,6.32
2022-12-23T01:39:16.714Z,6.78
2022-12-23T01:42:25.377Z,7.43
2022-12-23T01:45:18.471Z,6.63
2022-12-23T01:48:10.475Z,7.35
2022-12-23T01:51:04.354Z,6.57
2022-12-23T01:53:56.203Z,6.20
2022-12-23T01:56:43.662Z,6.63
2022-12-23T01:59:50.312Z,6.35
2022-12-23T02:02:57.495Z,6.93
2022-12-23T02:05:47.113Z,6.30
2022-12-23T02:08:52.302Z,6.88
2022-12-23T02:11:58.304Z,6.87
2022-12-23T02:15:19.699Z,8.07
2022-12-23T02:18:35.697Z,7.47
2022-12-23T02:21:39.862Z,7.22
2022-12-23T02:25:18.398Z,6.68
2022-12-23T02:28:30.118Z,6.60
2022-12-23T02:31:26.643Z,6.53
2022-12-23T02:34:20.710Z,5.93
2022-12-23T02:37:16.827Z,6.30
2022-12-23T02:40:11.557Z,6.38
2022-12-23T02:43:05.403Z,5.63
2022-12-23T02:46:00.202Z,5.47
2022-12-23T02:48:55.764Z,5.47
2022-12-23T02:51:47.179Z,6.00
2022-12-23T02:54:40.380Z,6.15
2022-12-23T02:57:33.848Z,5.17
2022-12-23T03:00:22.650Z,5.43
2022-12-23T03:03:10.362Z,5.93
2022-12-23T03:05:59.726Z,5.53
2022-12-23T03:08:47.663Z,5.78
2022-12-23T03:11:46.277Z,5.60
2022-12-23T03:14:58.364Z,6.57
2022-12-23T03:17:59.543Z,6.55
2022-12-23T03:20:55.093Z,6.60
2022-12-23T03:23:51.980Z,6.57
2022-12-23T03:26:50.991Z,6.90
2022-12-23T03:29:44.207Z,6.50
2022-12-23T03:32:38.484Z,6.28
2022-12-23T03:35:32.543Z,6.43
2022-12-23T03:38:20.569Z,5.80
2022-12-23T03:41:15.403Z,5.57
2022-12-23T03:44:08.266Z,5.13
2022-12-23T03:47:00.521Z,5.95
2022-12-23T03:49:53.666Z,6.32
2022-12-23T03:52:47.329Z,5.70
2022-12-23T03:55:38.096Z,5.63
2022-12-23T03:58:36.770Z,5.47
2022-12-23T04:01:35.289Z,5.03
2022-12-23T04:04:27.443Z,5.43
2022-12-23T04:07:18.997Z,5.57
2022-12-23T04:10:09.401Z,4.83
2022-12-23T04:12:57.186Z,4.68
2022-12-23T04:15:46.517Z,4.70
2022-12-23T04:18:34.281Z,4.65
2022-12-23T04:21:21.469Z,4.28
2022-12-23T04:24:09.153Z,4.53
2022-12-23T04:26:56.408Z,4.15
2022-12-23T04:29:44.092Z,3.80
2022-12-23T04:32:33.361Z,4.00
2022-12-23T04:35:21.407Z,4.03
2022-12-23T04:38:12.158Z,3.57
2022-12-23T04:41:00.330Z,3.20
2022-12-23T04:43:52.771Z,3.30
2022-12-23T04:46:40.928Z,3.33
2022-12-23T04:49:30.141Z,2.45
2022-12-23T04:52:17.369Z,2.33
2022-12-23T04:55:05.089Z,2.25
2022-12-23T04:57:52.329Z,2.20
2022-12-23T05:00:40.273Z,1.55
2022-12-23T05:03:27.725Z,2.70
2022-12-23T05:06:16.478Z,1.70
2022-12-23T05:09:04.059Z,1.88
2022-12-23T05:11:51.856Z,2.03
2022-12-23T05:14:39.249Z,1.63
2022-12-23T05:17:27.010Z,2.30
2022-12-23T05:20:14.730Z,1.90
2022-12-23T05:23:04.071Z,2.47
2022-12-23T05:25:53.312Z,2.42
2022-12-23T05:28:40.938Z,2.13
2022-12-23T05:31:28.439Z,2.42
2022-12-23T05:34:16.327Z,2.83
2022-12-23T05:37:03.695Z,2.63
2022-12-23T05:39:54.826Z,2.60
2022-12-23T05:42:42.596Z,2.85
2022-12-23T05:45:30.329Z,3.05
2022-12-23T05:48:18.768Z,3.33
2022-12-23T05:51:06.830Z,2.78
2022-12-23T05:53:54.102Z,3.13
2022-12-23T05:56:42.984Z,3.60
2022-12-23T05:59:31.490Z,3.78
2022-12-23T06:02:22.337Z,3.10
2022-12-23T06:05:11.347Z,3.38
2022-12-23T06:07:58.985Z,3.25
2022-12-23T06:10:46.143Z,2.75
2022-12-23T06:13:35.070Z,3.10
2022-12-23T06:16:22.501Z,2.83
2022-12-23T06:19:11.381Z,2.80
2022-12-23T06:21:59.075Z,3.60
2022-12-23T06:24:46.535Z,3.90
2022-12-23T06:27:33.987Z,3.92
2022-12-23T06:30:22.764Z,4.10
2022-12-23T06:33:12.443Z,3.95
2022-12-23T06:35:59.986Z,3.60
2022-12-23T06:38:47.487Z,4.80
2022-12-23T06:41:35.110Z,4.82
2022-12-23T06:44:22.315Z,4.27
2022-12-23T06:47:11.628Z,4.28
2022-12-23T06:49:59.395Z,4.68
2022-12-23T06:52:46.975Z,5.20
2022-12-23T06:55:34.549Z,5.18
2022-12-23T06:58:22.308Z,4.90
2022-12-23T07:01:10.303Z,5.93
2022-12-23T07:03:59.624Z,4.82
2022-12-23T07:06:46.714Z,5.10
2022-12-23T07:09:35.197Z,5.10
2022-12-23T07:12:22.423Z,5.20
2022-12-23T07:15:10.843Z,5.20
2022-12-23T07:17:58.446Z,5.50
2022-12-23T07:20:47.101Z,4.90
2022-12-23T07:23:34.545Z,5.85
2022-12-23T07:26:22.133Z,5.57
2022-12-23T07:29:09.645Z,5.68
2022-12-23T07:31:57.197Z,6.20
2022-12-23T07:34:44.970Z,5.85
2022-12-23T07:37:33.897Z,5.63
2022-12-23T07:40:21.803Z,5.60
2022-12-23T07:43:09.199Z,5.30
2022-12-23T07:46:00.355Z,5.40
2022-12-23T07:48:48.857Z,5.22
2022-12-23T07:51:36.371Z,5.47
2022-12-23T07:54:25.305Z,5.10
2022-12-23T07:57:13.925Z,5.43
2022-12-23T08:00:01.245Z,5.15
2022-12-23T08:02:49.270Z,5.68
2022-12-23T08:05:37.136Z,5.47
2022-12-23T08:08:24.569Z,5.07
2022-12-23T08:11:14.959Z,5.05
2022-12-23T08:14:02.714Z,5.60
2022-12-23T08:16:50.428Z,6.05
2022-12-23T08:19:38.984Z,5.65
2022-12-23T08:22:26.799Z,4.80
2022-12-23T08:25:14.535Z,5.28
2022-12-23T08:28:03.610Z,5.72
2022-12-23T08:30:51.087Z,5.65
2022-12-23T08:33:40.026Z,5.78
2022-12-23T08:36:30.384Z,5.50
2022-12-23T08:39:19.169Z,4.63
2022-12-23T08:42:07.113Z,5.18
2022-12-23T08:44:56.086Z,5.70
2022-12-23T08:47:43.504Z,5.30
2022-12-23T08:50:31.349Z,5.30
2022-12-23T08:53:18.843Z,5.53
2022-12-23T08:56:08.334Z,5.03
2022-12-23T08:58:56.987Z,4.80
2022-12-23T09:01:46.226Z,5.70
2022-12-23T09:04:34.024Z,5.83
2022-12-23T09:07:21.556Z,5.60
2022-12-23T09:10:10.198Z,6.75
2022-12-23T09:12:58.253Z,6.13
2022-12-23T09:15:46.081Z,5.90
2022-12-23T09:18:35.979Z,6.00
2022-12-23T09:21:25.104Z,6.50
2022-12-23T09:24:12.776Z,6.35
2022-12-23T09:27:00.150Z,6.55
2022-12-23T09:29:47.439Z,6.43
2022-12-23T09:32:35.068Z,6.67
2022-12-23T09:35:23.875Z,7.28
2022-12-23T09:38:12.146Z,7.15
2022-12-23T09:41:04.653Z,6.80
2022-12-23T09:43:59.031Z,6.65
2022-12-23T09:46:52.921Z,6.93
2022-12-23T09:49:48.638Z,6.97
2022-12-23T09:52:44.477Z,6.47
2022-12-23T09:55:41.676Z,6.07
2022-12-23T09:58:33.776Z,6.72
2022-12-23T10:01:33.810Z,6.73
2022-12-23T10:04:41.007Z,6.90
2022-12-23T10:07:36.711Z,6.88
2022-12-23T10:10:34.996Z,6.97
2022-12-23T10:13:29.866Z,6.68
2022-12-23T10:16:20.782Z,7.73
2022-12-23T10:19:16.365Z,7.20
2022-12-23T10:22:06.452Z,7.00
2022-12-23T10:24:57.026Z,7.35
2022-12-23T10:27:46.439Z,8.13
2022-12-23T10:31:10.886Z,7.23
2022-12-23T10:33:52.606Z,7.00
2022-12-23T10:36:50.083Z,7.65
2022-12-23T10:39:44.916Z,6.82
2022-12-23T10:42:38.915Z,7.47
2022-12-23T10:45:45.042Z,6.83
2022-12-23T10:48:48.367Z,6.97
2022-12-23T10:51:46.757Z,6.38
2022-12-23T10:54:37.024Z,7.00
2022-12-23T10:57:26.175Z,7.57
2022-12-23T11:00:19.812Z,7.57
2022-12-23T11:03:18.411Z,7.80
2022-12-23T11:06:09.207Z,6.88
2022-12-23T11:08:58.037Z,6.95
2022-12-23T11:11:57.319Z,7.72
2022-12-23T11:14:53.177Z,6.47
2022-12-23T11:17:40.968Z,7.82
2022-12-23T11:20:31.407Z,6.95
2022-12-23T11:23:26.904Z,7.78
2022-12-23T11:26:20.023Z,7.78
2022-12-23T11:29:11.392Z,7.53
2022-12-23T11:31:59.711Z,7.57
2022-12-23T11:34:49.638Z,6.78
2022-12-23T11:37:43.407Z,6.43
2022-12-23T11:40:33.970Z,6.55
2022-12-23T11:43:24.587Z,7.30
2022-12-23T11:46:17.482Z,6.30
2022-12-23T11:49:16.584Z,6.32
2022-12-23T11:52:13.582Z,6.35
2022-12-23T11:55:04.511Z,6.68
2022-12-23T11:57:53.148Z,6.33
2022-12-23T12:00:44.174Z,5.97
2022-12-23T12:03:36.239Z,6.45
2022-12-23T12:06:25.077Z,6.15
2022-12-23T12:09:15.324Z,6.20
2022-12-23T12:12:09.108Z,6.40
2022-12-23T12:14:59.053Z,6.70
2022-12-23T12:17:52.544Z,5.93
2022-12-23T12:20:44.738Z,6.10
2022-12-23T12:23:41.898Z,6.38
2022-12-23T12:26:32.627Z,7.50
2022-12-23T12:29:29.137Z,6.93
2022-12-23T12:32:22.727Z,6.47
2022-12-23T12:35:16.509Z,6.18
2022-12-23T12:38:13.250Z,7.38
2022-12-23T12:41:08.666Z,6.27
2022-12-23T12:44:05.692Z,6.82
2022-12-23T12:47:00.146Z,6.20
2022-12-23T12:49:53.378Z,6.43
2022-12-23T12:52:43.420Z,6.63
2022-12-23T12:55:33.964Z,6.53
2022-12-23T12:58:23.757Z,7.32
2022-12-23T13:01:30.712Z,8.07
2022-12-23T13:05:02.781Z,7.95
2022-12-23T13:08:06.859Z,8.00
2022-12-23T13:11:01.996Z,6.43
2022-12-23T13:13:57.430Z,7.10
2022-12-23T13:16:53.084Z,7.00
2022-12-23T13:19:49.515Z,7.70
2022-12-23T13:22:38.784Z,7.85
2022-12-23T13:25:33.225Z,8.10
2022-12-23T13:28:32.545Z,7.25
2022-12-23T13:31:34.995Z,6.65
2022-12-23T13:34:34.095Z,5.68
2022-12-23T13:37:32.316Z,6.40
2022-12-23T13:40:38.202Z,5.10
2022-12-23T13:43:27.854Z,6.60
2022-12-23T13:46:28.270Z,7.20
2022-12-23T13:49:26.215Z,7.25
2022-12-23T13:52:17.588Z,6.93
2022-12-23T13:55:15.917Z,7.73
2022-12-23T13:58:12.320Z,6.95
2022-12-23T14:01:21.122Z,7.13
2022-12-23T14:04:37.067Z,6.85
2022-12-23T14:07:25.250Z,8.27
2022-12-23T14:10:21.865Z,7.50
2022-12-23T14:13:16.949Z,6.88
2022-12-23T14:16:24.343Z,6.80
2022-12-23T14:19:42.644Z,7.30
2022-12-23T14:22:41.850Z,7.47
2022-12-23T14:25:51.935Z,7.50
2022-12-23T14:28:55.723Z,7.45
2022-12-23T14:31:46.192Z,7.40
2022-12-23T14:34:36.424Z,6.57
2022-12-23T14:37:35.966Z,7.65
2022-12-23T14:41:00.783Z,6.50
2022-12-23T14:43:56.243Z,6.78
2022-12-23T14:46:59.672Z,6.95
2022-12-23T14:49:49.776Z,6.82
2022-12-23T14:53:01.510Z,8.13
2022-12-23T14:55:51.064Z,8.43
2022-12-23T14:58:56.076Z,7.75
2022-12-23T15:01:50.109Z,7.80
2022-12-23T15:04:49.127Z,7.88
2022-12-23T15:07:39.462Z,7.72
2022-12-23T15:10:29.191Z,7.70
2022-12-23T15:13:19.028Z,8.90
2022-12-23T15:16:08.801Z,7.32
2022-12-23T15:19:00.535Z,8.27
2022-12-23T15:21:54.465Z,7.55
2022-12-23T15:24:48.278Z,7.13
2022-12-23T15:27:38.475Z,8.05
2022-12-23T15:30:27.948Z,7.65
2022-12-23T15:34:00.219Z,7.45
2022-12-23T15:36:32.447Z,7.55
2022-12-23T15:39:22.425Z,7.70
2022-12-23T15:42:23.049Z,8.32
2022-12-23T15:45:33.790Z,7.00
2022-12-23T15:48:26.337Z,6.47
2022-12-23T15:51:30.551Z,6.68
2022-12-23T15:54:30.720Z,6.30
2022-12-23T15:57:22.121Z,6.05
2022-12-23T16:00:20.561Z,7.05
2022-12-23T16:03:20.588Z,6.70
2022-12-23T16:06:11.617Z,5.38
2022-12-23T16:09:02.724Z,5.27
2022-12-23T16:11:57.798Z,5.20
2022-12-23T16:14:54.056Z,5.47
2022-12-23T16:17:41.686Z,5.70
2022-12-23T16:20:29.520Z,5.53
2022-12-23T16:23:18.714Z,5.00
2022-12-23T16:26:06.612Z,5.40
2022-12-23T16:28:59.664Z,4.60
2022-12-23T16:31:55.837Z,5.10
2022-12-23T16:34:51.505Z,5.07
2022-12-23T16:37:38.957Z,6.47
2022-12-23T16:40:26.671Z,5.90
2022-12-23T16:43:14.592Z,5.63
2022-12-23T16:46:04.364Z,6.57
2022-12-23T16:48:55.509Z,6.32
2022-12-23T16:51:43.604Z,5.67
2022-12-23T16:54:31.239Z,6.07
2022-12-23T16:57:18.697Z,5.63
2022-12-23T17:00:07.970Z,5.53
2022-12-23T17:02:57.297Z,5.28
2022-12-23T17:05:45.975Z,5.23
2022-12-23T17:08:33.583Z,5.20
2022-12-23T17:11:26.255Z,4.95
2022-12-23T17:14:17.315Z,5.40
2022-12-23T17:17:14.371Z,5.15
2022-12-23T17:20:03.543Z,4.20
2022-12-23T17:22:54.302Z,4.97
2022-12-23T17:25:41.739Z,4.30
2022-12-23T17:28:32.432Z,4.50
2022-12-23T17:31:26.509Z,4.30
2022-12-23T17:34:17.414Z,4.87
2022-12-23T17:37:14.126Z,4.38
2022-12-23T17:40:01.808Z,4.13
2022-12-23T17:42:49.590Z,4.28
2022-12-23T17:45:37.550Z,4.13
2022-12-23T17:48:31.114Z,3.47
2022-12-23T17:51:20.839Z,4.60
2022-12-23T17:54:21.841Z,4.30
2022-12-23T17:57:19.166Z,3.67
2022-12-23T18:00:08.634Z,3.65
2022-12-23T18:02:59.284Z,4.30
2022-12-23T18:05:46.795Z,3.58
2022-12-23T18:08:34.368Z,3.95
2022-12-23T18:11:28.840Z,3.63
2022-12-23T18:14:19.464Z,4.13
2022-12-23T18:17:07.333Z,3.00
2022-12-23T18:19:55.046Z,3.38
2022-12-23T18:22:42.803Z,2.88
2022-12-23T18:25:30.625Z,3.00
2022-12-23T18:28:19.511Z,3.17
2022-12-23T18:31:07.025Z,3.53
2022-12-23T18:33:54.642Z,3.83
2022-12-23T18:36:42.483Z,3.58
2022-12-23T18:39:30.097Z,3.33
2022-12-23T18:42:19.135Z,3.33
2022-12-23T18:45:26.101Z,3.70
2022-12-23T18:48:13.664Z,3.85
2022-12-23T18:51:01.502Z,3.50
2022-12-23T18:53:49.663Z,3.80
2022-12-23T18:56:37.322Z,4.40
2022-12-23T18:59:29.828Z,3.70
2022-12-23T19:02:19.378Z,6.35
2022-12-23T19:05:08.193Z,9.13
2022-12-23T19:07:57.437Z,5.35
2022-12-23T19:10:48.174Z,3.88
2022-12-23T19:13:35.913Z,5.07
2022-12-23T19:16:23.690Z,4.60
2022-12-23T19:19:13.046Z,4.72
2022-12-23T19:22:02.046Z,4.13
2022-12-23T19:25:04.612Z,3.45
2022-12-23T19:27:53.628Z,3.30
2022-12-23T19:30:42.807Z,3.47
2022-12-23T19:33:30.407Z,3.65
2022-12-23T19:36:22.826Z,3.35
2022-12-23T19:39:16.686Z,3.58
2022-12-23T19:42:05.906Z,6.23
2022-12-23T19:44:53.777Z,4.70
2022-12-23T19:47:41.695Z,3.58
2022-12-23T19:50:30.786Z,3.00
2022-12-23T19:53:19.767Z,3.45
2022-12-23T19:56:10.191Z,3.93
2022-12-23T19:58:57.816Z,3.67
2022-12-23T20:01:47.292Z,3.47
2022-12-23T20:04:36.187Z,3.83
2022-12-23T20:07:23.836Z,3.03
2022-12-23T20:10:13.517Z,3.53
2022-12-23T20:13:01.263Z,3.00
2022-12-23T20:15:49.044Z,3.60
2022-12-23T20:18:37.124Z,4.18
2022-12-23T20:21:25.449Z,4.60
2022-12-23T20:24:13.241Z,4.17
2022-12-23T20:27:05.096Z,4.65
2022-12-23T20:29:55.486Z,4.30
2022-12-23T20:32:43.408Z,4.65
2022-12-23T20:35:32.296Z,4.45
2022-12-23T20:38:20.126Z,5.10
2022-12-23T20:41:08.167Z,4.03
2022-12-23T20:44:31.741Z,4.22
2022-12-23T20:47:04.781Z,4.03
2022-12-23T20:49:55.843Z,3.80
2022-12-23T20:52:43.539Z,4.40
2022-12-23T20:55:33.179Z,4.88
2022-12-23T20:58:41.136Z,4.35
2022-12-23T21:01:32.378Z,4.88
2022-12-23T21:04:20.720Z,5.05
2022-12-23T21:07:08.289Z,5.37
2022-12-23T21:09:55.977Z,6.82
2022-12-23T21:12:43.380Z,6.20
2022-12-23T21:15:32.946Z,7.78
2022-12-23T21:18:22.003Z,8.00
2022-12-23T21:21:09.579Z,7.27
2022-12-23T21:24:00.487Z,7.55
2022-12-23T21:26:55.570Z,7.35
2022-12-23T21:29:44.411Z,7.68
2022-12-23T21:32:32.912Z,7.47
2022-12-23T21:35:22.126Z,7.33
2022-12-23T21:38:09.572Z,7.68
2022-12-23T21:41:01.111Z,7.70
2022-12-23T21:43:48.598Z,7.50
2022-12-23T21:46:36.287Z,7.97
2022-12-23T21:49:24.251Z,7.07
2022-12-23T21:52:13.235Z,8.10
2022-12-23T21:55:01.115Z,7.72
2022-12-23T21:57:48.873Z,7.47
2022-12-23T22:00:36.370Z,7.35
2022-12-23T22:03:24.075Z,6.80
2022-12-23T22:06:14.823Z,8.45
2022-12-23T22:09:04.413Z,8.20
2022-12-23T22:11:52.034Z,8.30
2022-12-23T22:14:39.889Z,8.05
2022-12-23T22:17:27.278Z,8.13
2022-12-23T22:20:14.723Z,8.10
2022-12-23T22:23:03.688Z,5.72
2022-12-23T22:26:25.631Z,4.90
2022-12-23T22:29:14.167Z,4.60
2022-12-23T22:32:01.465Z,4.00
2022-12-23T22:34:48.933Z,4.55
2022-12-23T22:37:36.684Z,3.80
2022-12-23T22:40:24.624Z,4.53
2022-12-23T22:43:13.713Z,4.20
2022-12-23T22:46:03.048Z,3.97
2022-12-23T22:48:50.811Z,3.35
2022-12-23T22:51:38.275Z,3.88
2022-12-23T22:54:25.958Z,3.25
2022-12-23T22:57:14.389Z,3.30
2022-12-23T23:00:09.641Z,3.93
2022-12-23T23:02:59.336Z,2.95
2022-12-23T23:05:56.146Z,3.00
2022-12-23T23:08:44.568Z,3.67
2022-12-23T23:11:31.957Z,3.20
2022-12-23T23:14:20.092Z,2.97
2022-12-23T23:17:09.496Z,3.30
2022-12-23T23:19:57.363Z,3.15
2022-12-23T23:22:44.783Z,3.10
2022-12-23T23:25:32.517Z,3.25
2022-12-23T23:28:20.412Z,3.23
2022-12-23T23:34:18.292Z,3.08
2022-12-23T23:37:06.147Z,2.08
2022-12-23T23:39:53.780Z,2.30
2022-12-23T23:42:41.174Z,2.07
2022-12-23T23:45:30.598Z,1.85
2022-12-23T23:48:19.414Z,1.92
2022-12-23T23:51:08.905Z,2.00
2022-12-23T23:53:58.758Z,2.05
2022-12-23T23:56:46.596Z,2.23
2022-12-23T23:59:34.514Z,2.22
